Address 0x0d0ec00cf4268e87e9f3a2125efa8e1a1ef50884

Txn Hash Method
Block
From
To
Value [Txn Fee]
0xa8257ea3ea185bda7d31a08fe9223c179ca5cc302c8818a9fae0f9695387ddb5Cancel Multiple ...57090202022-11-24 12:00:162 days 17 mins ago0x0d0ec00cf4268e87e9f3a2125efa8e1a1ef50884OUT 0x40cbf9c75a46b147e0fd9ab47df5e064ae015f920 CRO0.2459315172630
0xb5b2e630d0d66afe5f853e2635a5deb7aa63809a7d906d33e23e1ef23b216846Deposit57088682022-11-24 11:45:542 days 31 mins ago0x0d0ec00cf4268e87e9f3a2125efa8e1a1ef50884OUT 0xb676b77ba1401d8b7e6e9d69081edd203f3fc1cc0 CRO2.2179690496280
0xc6a8e91f3b36ad7dd4aac36c2ab207b3248157eae87b3e9630b18accc7186bf1Approve57088642022-11-24 11:45:312 days 32 mins ago0x0d0ec00cf4268e87e9f3a2125efa8e1a1ef50884OUT 0xcbf0adea24fd5f32c6e7f0474f0d1b94ace4e2e70 CRO0.2165301092640
0x4d163d050dad413885b2db263eaeebbae055b3bd6395d09d15ecce71683c9bcdClaim56872242022-11-23 1:42:063 days 10 hrs ago0x0d0ec00cf4268e87e9f3a2125efa8e1a1ef50884OUT 0x195b8fb58e9e8df10c7f08daa05efdc39ccd9bdc0 CRO4.7521101541550
0xa25294e9604e178d63c25f1c39cba2c35ae09d3884d6f23c00c6de1d50e58065Swap Exact Token...56028442022-11-17 12:51:408 days 23 hrs ago0x0d0ec00cf4268e87e9f3a2125efa8e1a1ef50884OUT VVS Finance: Router0 CRO0.6786050
0x7adf8ae1e8d9950c112d3f7d9f5020e12764bbfe22240055591249fd607f2daaApprove56028402022-11-17 12:51:178 days 23 hrs ago0x0d0ec00cf4268e87e9f3a2125efa8e1a1ef50884OUT VVS Finance: VVS Token0 CRO0.2220350
0x1056fb00e913b1195e261b5fdc4848f79d5bef23c4ccc0d03e650009646fc1a1Deposit55590822022-11-14 15:46:0111 days 20 hrs ago0x0d0ec00cf4268e87e9f3a2125efa8e1a1ef50884OUT 0x697c9c6f8823ea99b535a9a4d03ecc948b9ba0210 CRO2.3497295246350
0x5627f9206dc9ee840dfa9bba3bbff3f07fa489006071930caaabdb37028d3377Batch Upgrade55590642022-11-14 15:44:1711 days 20 hrs ago0x0d0ec00cf4268e87e9f3a2125efa8e1a1ef50884OUT 0x697c9c6f8823ea99b535a9a4d03ecc948b9ba0210 CRO4.1433152594030
0x5ece7341c99e03567dd70827753d8bed2406524fad3266d2560f11818d969e0eBatch Upgrade55590582022-11-14 15:43:4211 days 20 hrs ago0x0d0ec00cf4268e87e9f3a2125efa8e1a1ef50884OUT 0x697c9c6f8823ea99b535a9a4d03ecc948b9ba0210 CRO1.9639607868080
0x377c416824214be45ebc103c6eb6f508d8d7d5183d017aadeb924dd15afa1c52Claim55590462022-11-14 15:42:3411 days 20 hrs ago0x0d0ec00cf4268e87e9f3a2125efa8e1a1ef50884OUT 0x195b8fb58e9e8df10c7f08daa05efdc39ccd9bdc0 CRO4.7577135715030
0x3f2a974d2e040a66f95427c4c4e0d2931b69af841f24e264923a56b0f36cee9fBatch Upgrade54524892022-11-07 14:54:1418 days 21 hrs ago0x0d0ec00cf4268e87e9f3a2125efa8e1a1ef50884OUT 0x697c9c6f8823ea99b535a9a4d03ecc948b9ba0210 CRO3.7618403166570
0xbbb514d3d094ee4e697a10a92f487868496a7a95521856c261ddd693498047c4Batch Withdraw54524812022-11-07 14:53:2918 days 21 hrs ago0x0d0ec00cf4268e87e9f3a2125efa8e1a1ef50884OUT 0x697c9c6f8823ea99b535a9a4d03ecc948b9ba0210 CRO1.7141785953810
0x011c7fab45068907e9b378cd894c6143daf64a4932a1bab51d399f4804cef65cClaim54524652022-11-07 14:51:5818 days 21 hrs ago0x0d0ec00cf4268e87e9f3a2125efa8e1a1ef50884OUT 0x195b8fb58e9e8df10c7f08daa05efdc39ccd9bdc0 CRO4.7624041259010
0x10e24bb3bb054e089b423e7f31a03213504aed98a756e2b542b8f1157952c3d6Deposit54303972022-11-06 4:02:1120 days 8 hrs ago0x0d0ec00cf4268e87e9f3a2125efa8e1a1ef50884OUT 0x990e9683e6ba5079cdb235838856029a50dad84c0 CRO2.330780
0x20bbf2d554b97a4b2db757e4480e05357880cbea4587435b6a312ebf7097eaa6Enter Pool54303852022-11-06 4:01:0420 days 8 hrs ago0x0d0ec00cf4268e87e9f3a2125efa8e1a1ef50884OUT 0x7fe4db9063b7dd7ba55313b9c258070bed2c143a0 CRO0.3794050
0x44f759d3dfec8ebd9df32a7fe8692b51625a31e88da2b246463f6cf3f1b97be6Approve54303692022-11-06 3:59:3320 days 8 hrs ago0x0d0ec00cf4268e87e9f3a2125efa8e1a1ef50884OUT VVS Finance: VVS Token0 CRO0.2220350
0xacf5b0b511ab0239a3b112b3338db0b0cefbba991b55dffbec72ba71618f8338Approve54301812022-11-06 3:41:5220 days 8 hrs ago0x0d0ec00cf4268e87e9f3a2125efa8e1a1ef50884OUT 0x7fe4db9063b7dd7ba55313b9c258070bed2c143a0 CRO0.2221450
0x432bf3a0f38902f698d00b368b8606bee44a2a1a295d9d770ae814541c1ada11Cancel Multiple ...54202422022-11-05 12:02:5921 days 14 mins ago0x0d0ec00cf4268e87e9f3a2125efa8e1a1ef50884OUT 0x40cbf9c75a46b147e0fd9ab47df5e064ae015f920 CRO0.2465955564340
0x4924f8fa0f2b3eba547a6e0fddf190b387134dec75ed8df028e93eed9e079d82Set Text53738232022-11-02 10:57:2324 days 1 hr ago0x0d0ec00cf4268e87e9f3a2125efa8e1a1ef50884OUT 0xde2d3458424683b0a29d056db819a2a6b99c5bfd0 CRO0.3028917858440
0x7af976a3e4385134fe0a03a2e0a2eac78cd57d1f4bd3b2d481b1ab3b71890bcfSet Text53738172022-11-02 10:56:4924 days 1 hr ago0x0d0ec00cf4268e87e9f3a2125efa8e1a1ef50884OUT 0xde2d3458424683b0a29d056db819a2a6b99c5bfd0 CRO0.2139556789310
0x080f76997a263de2586196709159a7a86b131b6a7af67b539df097922c40f282Set Text53738162022-11-02 10:56:4424 days 1 hr ago0x0d0ec00cf4268e87e9f3a2125efa8e1a1ef50884OUT 0xde2d3458424683b0a29d056db819a2a6b99c5bfd0 CRO0.3035952056950
0xd694c8cb89263457863f411885b7bac02758d381a4a8022dc14b507666195a86Deposit53520202022-11-01 0:39:3325 days 11 hrs ago0x0d0ec00cf4268e87e9f3a2125efa8e1a1ef50884OUT 0x697c9c6f8823ea99b535a9a4d03ecc948b9ba0210 CRO2.3541827000920
0x15378d274bf4b0e471f56f79e2bdb33c01f8410bc3bff15f554b782223b1fcd7Claim53520072022-11-01 0:38:2025 days 11 hrs ago0x0d0ec00cf4268e87e9f3a2125efa8e1a1ef50884OUT 0x195b8fb58e9e8df10c7f08daa05efdc39ccd9bdc0 CRO4.766882335740
0xdffae334fff78473fc8c8cf2f9e04994ffd4c13917ead74872da638e8ab6a9beDeposit52245502022-10-23 15:51:4333 days 20 hrs ago0x0d0ec00cf4268e87e9f3a2125efa8e1a1ef50884OUT Cronos: WCRO Token1,000 CRO0.1500053437810
0xf9f8ebfbd7b1a39e4d7dd4f31c4b2708674a40ee7066b1b14b063df82ce8817aClaim52245122022-10-23 15:48:0833 days 20 hrs ago0x0d0ec00cf4268e87e9f3a2125efa8e1a1ef50884OUT 0x195b8fb58e9e8df10c7f08daa05efdc39ccd9bdc0 CRO4.7725547341810
[ Download CSV Export 
Latest 3 internal transactions
Parent Txn Hash Block From To Value
0xa93e0ef9e64e9c793ec28581dd2b206f0cc4bc4dcf451243848fedfd857de2d652089592022-10-22 15:17:0934 days 21 hrs ago Cronos: WCRO Token0x0d0ec00cf4268e87e9f3a2125efa8e1a1ef508844,185.04514 CRO
0xd235faac6d898d4246367de01426a9d30a715af88583cde73931049a954a12fb51825002022-10-20 21:31:1236 days 14 hrs ago 0xaff2b5cf1950e8fb22907ccd643728a5dc75278b0x0d0ec00cf4268e87e9f3a2125efa8e1a1ef5088413.386302914631666426 CRO
0x80b09e7aee046546fd39c677d524bf15ab74a7a67c6df57e63218693e41d16d051824282022-10-20 21:24:2436 days 14 hrs ago 0xaff2b5cf1950e8fb22907ccd643728a5dc75278b0x0d0ec00cf4268e87e9f3a2125efa8e1a1ef5088413.393979261347036956 CRO
[ Download CSV Export 
Loading

Contract Name:
0

Compiler Version
0

Optimization Enabled:
0

Other Settings:
-NA-
Block Transaction Gas Used Reward
Age Block Fee Address BC Fee Address Voting Power Jailed Incoming
Block Uncle Number Difficulty Gas Used Reward
Loading
Make sure to use the "Vote Down" button for any spammy posts, and the "Vote Up" for interesting conversations.